sensor_id;sensor_type;location;lat;lon;timestamp;temperature;humidity
15997;DHT22;8103;51.340;12.326;2022-11-15T00:00:57;7.20;99.90
15997;DHT22;8103;51.340;12.326;2022-11-15T00:03:27;7.20;99.90
15997;DHT22;8103;51.340;12.326;2022-11-15T00:05:54;7.20;99.90
15997;DHT22;8103;51.340;12.326;2022-11-15T00:08:21;7.20;99.90
15997;DHT22;8103;51.340;12.326;2022-11-15T00:11:14;7.30;99.90
15997;DHT22;8103;51.340;12.326;2022-11-15T00:13:42;7.30;99.90
15997;DHT22;8103;51.340;12.326;2022-11-15T00:16:09;7.30;99.90
15997;DHT22;8103;51.340;12.326;2022-11-15T00:18:37;7.40;99.90
15997;DHT22;8103;51.340;12.326;2022-11-15T00:21:07;7.50;99.90
15997;DHT22;8103;51.340;12.326;2022-11-15T00:23:34;7.50;99.90
15997;DHT22;8103;51.340;12.326;2022-11-15T00:26:01;7.50;99.90
15997;DHT22;8103;51.340;12.326;2022-11-15T00:28:28;7.50;99.90
15997;DHT22;8103;51.340;12.326;2022-11-15T00:31:06;7.50;99.90
15997;DHT22;8103;51.340;12.326;2022-11-15T00:33:34;7.50;99.90
15997;DHT22;8103;51.340;12.326;2022-11-15T00:36:05;7.50;99.90
15997;DHT22;8103;51.340;12.326;2022-11-15T00:38:34;7.50;99.90
15997;DHT22;8103;51.340;12.326;2022-11-15T00:41:02;7.50;99.90
15997;DHT22;8103;51.340;12.326;2022-11-15T00:43:34;7.50;99.90
15997;DHT22;8103;51.340;12.326;2022-11-15T00:46:01;7.50;99.90
15997;DHT22;8103;51.340;12.326;2022-11-15T00:48:29;7.50;99.90
15997;DHT22;8103;51.340;12.326;2022-11-15T00:50:56;7.40;99.90
15997;DHT22;8103;51.340;12.326;2022-11-15T00:53:23;7.40;99.90
15997;DHT22;8103;51.340;12.326;2022-11-15T00:55:49;7.50;99.90
15997;DHT22;8103;51.340;12.326;2022-11-15T00:58:16;7.50;99.90
15997;DHT22;8103;51.340;12.326;2022-11-15T01:00:43;7.40;99.90
15997;DHT22;8103;51.340;12.326;2022-11-15T01:03:10;7.50;99.90
15997;DHT22;8103;51.340;12.326;2022-11-15T01:05:37;7.50;99.90
15997;DHT22;8103;51.340;12.326;2022-11-15T01:08:04;7.50;99.90
15997;DHT22;8103;51.340;12.326;2022-11-15T01:10:31;7.50;99.90
15997;DHT22;8103;51.340;12.326;2022-11-15T01:12:58;7.40;99.90
15997;DHT22;8103;51.340;12.326;2022-11-15T01:15:25;7.40;99.90
15997;DHT22;8103;51.340;12.326;2022-11-15T01:17:52;7.40;99.90
15997;DHT22;8103;51.340;12.326;2022-11-15T01:20:18;7.40;99.90
15997;DHT22;8103;51.340;12.326;2022-11-15T01:22:45;7.40;99.90
15997;DHT22;8103;51.340;12.326;2022-11-15T01:25:12;7.40;99.90
15997;DHT22;8103;51.340;12.326;2022-11-15T01:27:39;7.50;99.90
15997;DHT22;8103;51.340;12.326;2022-11-15T01:30:06;7.50;99.90
15997;DHT22;8103;51.340;12.326;2022-11-15T01:32:34;7.50;99.90
15997;DHT22;8103;51.340;12.326;2022-11-15T01:35:01;7.60;99.90
15997;DHT22;8103;51.340;12.326;2022-11-15T01:37:28;7.60;99.90
15997;DHT22;8103;51.340;12.326;2022-11-15T01:39:55;7.60;99.90
15997;DHT22;8103;51.340;12.326;2022-11-15T01:42:21;7.60;99.90
15997;DHT22;8103;51.340;12.326;2022-11-15T01:44:50;7.60;99.90
15997;DHT22;8103;51.340;12.326;2022-11-15T01:47:22;7.60;99.90
15997;DHT22;8103;51.340;12.326;2022-11-15T01:49:57;7.60;99.90
15997;DHT22;8103;51.340;12.326;2022-11-15T01:52:26;7.60;99.90
15997;DHT22;8103;51.340;12.326;2022-11-15T01:55:06;7.50;99.90
15997;DHT22;8103;51.340;12.326;2022-11-15T01:57:34;7.50;99.90
15997;DHT22;8103;51.340;12.326;2022-11-15T02:00:04;7.50;99.90
15997;DHT22;8103;51.340;12.326;2022-11-15T02:02:32;7.60;99.90
15997;DHT22;8103;51.340;12.326;2022-11-15T02:04:59;7.60;99.90
15997;DHT22;8103;51.340;12.326;2022-11-15T02:07:26;7.60;99.90
15997;DHT22;8103;51.340;12.326;2022-11-15T02:09:55;7.60;99.90
15997;DHT22;8103;51.340;12.326;2022-11-15T02:12:25;7.70;99.90
15997;DHT22;8103;51.340;12.326;2022-11-15T02:14:54;7.70;99.90
15997;DHT22;8103;51.340;12.326;2022-11-15T02:29:05;7.80;99.90
15997;DHT22;8103;51.340;12.326;2022-11-15T02:31:55;7.80;99.90
15997;DHT22;8103;51.340;12.326;2022-11-15T02:37:34;7.90;99.90
15997;DHT22;8103;51.340;12.326;2022-11-15T02:42:33;7.90;99.90
15997;DHT22;8103;51.340;12.326;2022-11-15T02:45:37;7.90;99.90
15997;DHT22;8103;51.340;12.326;2022-11-15T02:48:07;8.00;99.90
15997;DHT22;8103;51.340;12.326;2022-11-15T02:50:35;7.90;99.90
15997;DHT22;8103;51.340;12.326;2022-11-15T02:53:02;7.90;99.90
15997;DHT22;8103;51.340;12.326;2022-11-15T02:55:37;7.90;99.90
15997;DHT22;8103;51.340;12.326;2022-11-15T02:58:28;7.90;99.90
15997;DHT22;8103;51.340;12.326;2022-11-15T03:06:35;7.80;99.90
15997;DHT22;8103;51.340;12.326;2022-11-15T03:09:22;7.80;99.90
15997;DHT22;8103;51.340;12.326;2022-11-15T03:11:56;7.80;99.90
15997;DHT22;8103;51.340;12.326;2022-11-15T03:14:38;7.90;99.90
15997;DHT22;8103;51.340;12.326;2022-11-15T03:17:18;7.90;99.90
15997;DHT22;8103;51.340;12.326;2022-11-15T03:19:54;7.90;99.90
15997;DHT22;8103;51.340;12.326;2022-11-15T03:22:25;7.90;99.90
15997;DHT22;8103;51.340;12.326;2022-11-15T03:24:55;7.90;99.90
15997;DHT22;8103;51.340;12.326;2022-11-15T03:27:31;7.80;99.90
15997;DHT22;8103;51.340;12.326;2022-11-15T03:30:03;7.80;99.90
15997;DHT22;8103;51.340;12.326;2022-11-15T03:32:34;7.80;99.90
15997;DHT22;8103;51.340;12.326;2022-11-15T03:35:12;7.80;99.90
15997;DHT22;8103;51.340;12.326;2022-11-15T03:37:53;7.70;99.90
15997;DHT22;8103;51.340;12.326;2022-11-15T03:40:35;7.70;99.90
15997;DHT22;8103;51.340;12.326;2022-11-15T03:43:24;7.70;99.90
15997;DHT22;8103;51.340;12.326;2022-11-15T03:46:01;7.60;99.90
15997;DHT22;8103;51.340;12.326;2022-11-15T03:48:35;7.60;99.90
15997;DHT22;8103;51.340;12.326;2022-11-15T03:51:04;7.60;99.90
15997;DHT22;8103;51.340;12.326;2022-11-15T03:53:31;7.60;99.90
15997;DHT22;8103;51.340;12.326;2022-11-15T03:55:58;7.50;99.90
15997;DHT22;8103;51.340;12.326;2022-11-15T03:58:25;7.50;99.90
15997;DHT22;8103;51.340;12.326;2022-11-15T04:00:52;7.50;99.90
15997;DHT22;8103;51.340;12.326;2022-11-15T04:03:19;7.50;99.90
15997;DHT22;8103;51.340;12.326;2022-11-15T04:05:46;7.50;99.90
15997;DHT22;8103;51.340;12.326;2022-11-15T04:08:12;7.50;99.90
15997;DHT22;8103;51.340;12.326;2022-11-15T04:10:39;7.40;99.90
15997;DHT22;8103;51.340;12.326;2022-11-15T04:13:06;7.40;99.90
15997;DHT22;8103;51.340;12.326;2022-11-15T04:15:33;7.40;99.90
15997;DHT22;8103;51.340;12.326;2022-11-15T04:18:00;7.40;99.90
15997;DHT22;8103;51.340;12.326;2022-11-15T04:20:30;7.40;99.90
15997;DHT22;8103;51.340;12.326;2022-11-15T04:23:17;7.30;99.90
15997;DHT22;8103;51.340;12.326;2022-11-15T04:26:12;7.30;99.90
15997;DHT22;8103;51.340;12.326;2022-11-15T04:28:39;7.30;99.90
15997;DHT22;8103;51.340;12.326;2022-11-15T04:31:24;7.20;99.90
15997;DHT22;8103;51.340;12.326;2022-11-15T04:33:51;7.20;99.90
15997;DHT22;8103;51.340;12.326;2022-11-15T04:36:18;7.20;99.90
15997;DHT22;8103;51.340;12.326;2022-11-15T04:39:04;7.20;99.90
15997;DHT22;8103;51.340;12.326;2022-11-15T04:41:31;7.20;99.90
15997;DHT22;8103;51.340;12.326;2022-11-15T04:43:58;7.20;99.90
15997;DHT22;8103;51.340;12.326;2022-11-15T04:46:25;7.20;99.90
15997;DHT22;8103;51.340;12.326;2022-11-15T04:48:53;7.20;99.90
15997;DHT22;8103;51.340;12.326;2022-11-15T04:51:24;7.20;99.90
15997;DHT22;8103;51.340;12.326;2022-11-15T04:53:51;7.20;99.90
15997;DHT22;8103;51.340;12.326;2022-11-15T04:56:18;7.20;99.90
15997;DHT22;8103;51.340;12.326;2022-11-15T04:58:45;7.20;99.90
15997;DHT22;8103;51.340;12.326;2022-11-15T05:01:13;7.20;99.90
15997;DHT22;8103;51.340;12.326;2022-11-15T05:03:42;7.20;99.90
15997;DHT22;8103;51.340;12.326;2022-11-15T05:06:27;7.20;99.90
15997;DHT22;8103;51.340;12.326;2022-11-15T05:08:54;7.20;99.90
15997;DHT22;8103;51.340;12.326;2022-11-15T05:11:22;7.10;99.90
15997;DHT22;8103;51.340;12.326;2022-11-15T05:13:49;7.10;99.90
15997;DHT22;8103;51.340;12.326;2022-11-15T05:16:16;7.10;99.90
15997;DHT22;8103;51.340;12.326;2022-11-15T05:18:43;7.10;99.90
15997;DHT22;8103;51.340;12.326;2022-11-15T05:21:13;7.10;99.90
15997;DHT22;8103;51.340;12.326;2022-11-15T05:23:40;7.10;99.90
15997;DHT22;8103;51.340;12.326;2022-11-15T05:26:08;7.10;99.90
15997;DHT22;8103;51.340;12.326;2022-11-15T05:28:36;7.10;99.90
15997;DHT22;8103;51.340;12.326;2022-11-15T05:31:04;7.10;99.90
15997;DHT22;8103;51.340;12.326;2022-11-15T05:33:32;7.20;99.90
15997;DHT22;8103;51.340;12.326;2022-11-15T05:38:32;7.20;99.90
15997;DHT22;8103;51.340;12.326;2022-11-15T05:41:03;7.20;99.90
15997;DHT22;8103;51.340;12.326;2022-11-15T05:43:33;7.20;99.90
15997;DHT22;8103;51.340;12.326;2022-11-15T05:46:02;7.20;99.90
15997;DHT22;8103;51.340;12.326;2022-11-15T05:48:30;7.20;99.90
15997;DHT22;8103;51.340;12.326;2022-11-15T05:50:58;7.20;99.90
15997;DHT22;8103;51.340;12.326;2022-11-15T05:53:25;7.20;99.90
15997;DHT22;8103;51.340;12.326;2022-11-15T05:55:52;7.20;99.90
15997;DHT22;8103;51.340;12.326;2022-11-15T05:58:20;7.20;99.90
15997;DHT22;8103;51.340;12.326;2022-11-15T06:00:47;7.20;99.90
15997;DHT22;8103;51.340;12.326;2022-11-15T06:03:14;7.20;99.90
15997;DHT22;8103;51.340;12.326;2022-11-15T06:05:41;7.20;99.90
15997;DHT22;8103;51.340;12.326;2022-11-15T06:08:07;7.20;99.90
15997;DHT22;8103;51.340;12.326;2022-11-15T06:10:35;7.20;99.90
15997;DHT22;8103;51.340;12.326;2022-11-15T06:13:03;7.20;99.90
15997;DHT22;8103;51.340;12.326;2022-11-15T06:15:32;7.10;99.90
15997;DHT22;8103;51.340;12.326;2022-11-15T06:17:59;7.20;99.90
15997;DHT22;8103;51.340;12.326;2022-11-15T06:20:28;7.10;99.90
15997;DHT22;8103;51.340;12.326;2022-11-15T06:22:59;7.10;99.90
15997;DHT22;8103;51.340;12.326;2022-11-15T06:25:28;7.10;99.90
15997;DHT22;8103;51.340;12.326;2022-11-15T06:27:56;7.10;99.90
15997;DHT22;8103;51.340;12.326;2022-11-15T06:30:24;7.10;99.90
15997;DHT22;8103;51.340;12.326;2022-11-15T06:32:58;7.10;99.90
15997;DHT22;8103;51.340;12.326;2022-11-15T06:35:25;7.10;99.90
15997;DHT22;8103;51.340;12.326;2022-11-15T06:37:52;7.10;99.90
15997;DHT22;8103;51.340;12.326;2022-11-15T06:40:19;7.10;99.90
15997;DHT22;8103;51.340;12.326;2022-11-15T06:42:48;7.10;99.90
15997;DHT22;8103;51.340;12.326;2022-11-15T06:45:15;7.10;99.90
15997;DHT22;8103;51.340;12.326;2022-11-15T06:47:47;7.10;99.90
15997;DHT22;8103;51.340;12.326;2022-11-15T06:50:14;7.10;99.90
15997;DHT22;8103;51.340;12.326;2022-11-15T06:52:41;7.10;99.90
15997;DHT22;8103;51.340;12.326;2022-11-15T06:55:08;7.10;99.90
15997;DHT22;8103;51.340;12.326;2022-11-15T06:57:36;7.10;99.90
15997;DHT22;8103;51.340;12.326;2022-11-15T07:00:05;7.20;99.90
15997;DHT22;8103;51.340;12.326;2022-11-15T07:02:32;7.20;99.90
15997;DHT22;8103;51.340;12.326;2022-11-15T07:04:59;7.30;99.90
15997;DHT22;8103;51.340;12.326;2022-11-15T07:07:25;7.30;99.90
15997;DHT22;8103;51.340;12.326;2022-11-15T07:09:52;7.30;99.90
15997;DHT22;8103;51.340;12.326;2022-11-15T07:12:20;7.40;99.90
15997;DHT22;8103;51.340;12.326;2022-11-15T07:14:46;7.40;99.90
15997;DHT22;8103;51.340;12.326;2022-11-15T07:17:13;7.50;99.90
15997;DHT22;8103;51.340;12.326;2022-11-15T07:19:40;7.50;99.90
15997;DHT22;8103;51.340;12.326;2022-11-15T07:22:07;7.60;99.90
15997;DHT22;8103;51.340;12.326;2022-11-15T07:24:34;7.60;99.90
15997;DHT22;8103;51.340;12.326;2022-11-15T07:27:01;7.70;99.90
15997;DHT22;8103;51.340;12.326;2022-11-15T07:29:28;7.80;99.90
15997;DHT22;8103;51.340;12.326;2022-11-15T07:31:55;7.80;99.90
15997;DHT22;8103;51.340;12.326;2022-11-15T07:34:22;7.90;99.90
15997;DHT22;8103;51.340;12.326;2022-11-15T07:36:48;8.00;99.90
15997;DHT22;8103;51.340;12.326;2022-11-15T07:39:15;8.00;99.90
15997;DHT22;8103;51.340;12.326;2022-11-15T07:41:42;8.10;99.90
15997;DHT22;8103;51.340;12.326;2022-11-15T07:44:10;8.30;99.90
15997;DHT22;8103;51.340;12.326;2022-11-15T07:46:37;8.40;99.90
15997;DHT22;8103;51.340;12.326;2022-11-15T07:49:04;8.50;99.90
15997;DHT22;8103;51.340;12.326;2022-11-15T07:51:31;8.60;99.90
15997;DHT22;8103;51.340;12.326;2022-11-15T07:53:58;8.60;99.90
15997;DHT22;8103;51.340;12.326;2022-11-15T07:56:27;8.60;99.90
15997;DHT22;8103;51.340;12.326;2022-11-15T07:58:54;8.60;99.90
15997;DHT22;8103;51.340;12.326;2022-11-15T08:01:21;8.70;99.90
15997;DHT22;8103;51.340;12.326;2022-11-15T08:03:48;8.80;99.90
15997;DHT22;8103;51.340;12.326;2022-11-15T08:06:14;8.80;99.90
15997;DHT22;8103;51.340;12.326;2022-11-15T08:08:41;8.80;99.90
15997;DHT22;8103;51.340;12.326;2022-11-15T08:11:09;8.80;99.90
15997;DHT22;8103;51.340;12.326;2022-11-15T08:13:36;8.90;99.90
15997;DHT22;8103;51.340;12.326;2022-11-15T08:16:03;8.90;99.90
15997;DHT22;8103;51.340;12.326;2022-11-15T08:18:32;8.90;99.90
15997;DHT22;8103;51.340;12.326;2022-11-15T08:21:00;9.00;99.90
15997;DHT22;8103;51.340;12.326;2022-11-15T08:23:27;9.10;99.90
15997;DHT22;8103;51.340;12.326;2022-11-15T08:25:59;9.10;99.90
15997;DHT22;8103;51.340;12.326;2022-11-15T08:28:27;9.20;99.90
15997;DHT22;8103;51.340;12.326;2022-11-15T08:30:54;9.40;99.90
15997;DHT22;8103;51.340;12.326;2022-11-15T08:33:20;9.70;99.90
15997;DHT22;8103;51.340;12.326;2022-11-15T08:35:48;10.50;99.90
15997;DHT22;8103;51.340;12.326;2022-11-15T08:38:15;11.70;99.90
15997;DHT22;8103;51.340;12.326;2022-11-15T08:40:42;12.90;99.90
15997;DHT22;8103;51.340;12.326;2022-11-15T08:43:08;13.90;98.80
15997;DHT22;8103;51.340;12.326;2022-11-15T08:45:35;14.50;94.80
15997;DHT22;8103;51.340;12.326;2022-11-15T08:48:03;15.20;92.90
15997;DHT22;8103;51.340;12.326;2022-11-15T08:50:30;16.00;91.20
15997;DHT22;8103;51.340;12.326;2022-11-15T08:53:05;16.60;87.20
15997;DHT22;8103;51.340;12.326;2022-11-15T08:55:32;17.10;83.00
15997;DHT22;8103;51.340;12.326;2022-11-15T08:57:59;17.70;79.50
15997;DHT22;8103;51.340;12.326;2022-11-15T09:00:26;18.30;73.90
15997;DHT22;8103;51.340;12.326;2022-11-15T09:02:53;18.90;71.80
15997;DHT22;8103;51.340;12.326;2022-11-15T09:05:19;19.40;67.50
15997;DHT22;8103;51.340;12.326;2022-11-15T09:07:46;19.90;64.30
15997;DHT22;8103;51.340;12.326;2022-11-15T09:10:13;20.30;60.90
15997;DHT22;8103;51.340;12.326;2022-11-15T09:12:40;20.60;59.70
15997;DHT22;8103;51.340;12.326;2022-11-15T09:15:07;21.00;58.80
15997;DHT22;8103;51.340;12.326;2022-11-15T09:17:35;21.40;55.70
15997;DHT22;8103;51.340;12.326;2022-11-15T09:20:02;21.70;54.70
15997;DHT22;8103;51.340;12.326;2022-11-15T09:22:29;21.80;52.90
15997;DHT22;8103;51.340;12.326;2022-11-15T09:24:56;22.00;52.10
15997;DHT22;8103;51.340;12.326;2022-11-15T09:27:27;22.10;51.50
15997;DHT22;8103;51.340;12.326;2022-11-15T09:29:55;22.50;51.20
15997;DHT22;8103;51.340;12.326;2022-11-15T09:32:22;22.90;49.50
15997;DHT22;8103;51.340;12.326;2022-11-15T09:34:52;23.10;49.60
15997;DHT22;8103;51.340;12.326;2022-11-15T09:37:19;23.80;48.00
15997;DHT22;8103;51.340;12.326;2022-11-15T09:39:45;24.30;46.00
15997;DHT22;8103;51.340;12.326;2022-11-15T09:50:48;25.00;43.50
15997;DHT22;8103;51.340;12.326;2022-11-15T09:54:23;25.10;43.10
15997;DHT22;8103;51.340;12.326;2022-11-15T09:56:50;25.40;42.10
15997;DHT22;8103;51.340;12.326;2022-11-15T10:04:36;25.60;40.20
15997;DHT22;8103;51.340;12.326;2022-11-15T10:07:16;25.20;41.20
15997;DHT22;8103;51.340;12.326;2022-11-15T10:12:36;25.10;41.80
15997;DHT22;8103;51.340;12.326;2022-11-15T10:15:09;25.60;41.70
15997;DHT22;8103;51.340;12.326;2022-11-15T10:20:26;27.50;38.80
15997;DHT22;8103;51.340;12.326;2022-11-15T10:22:58;28.30;37.10
15997;DHT22;8103;51.340;12.326;2022-11-15T10:25:30;27.50;36.40
15997;DHT22;8103;51.340;12.326;2022-11-15T10:30:39;23.20;43.10
15997;DHT22;8103;51.340;12.326;2022-11-15T10:41:37;17.60;56.40
15997;DHT22;8103;51.340;12.326;2022-11-15T10:46:40;16.40;60.60
15997;DHT22;8103;51.340;12.326;2022-11-15T10:49:26;16.00;62.90
15997;DHT22;8103;51.340;12.326;2022-11-15T10:52:17;15.70;64.40
15997;DHT22;8103;51.340;12.326;2022-11-15T10:55:03;15.50;65.90
15997;DHT22;8103;51.340;12.326;2022-11-15T10:57:37;15.20;67.60
15997;DHT22;8103;51.340;12.326;2022-11-15T11:00:26;15.00;68.80
15997;DHT22;8103;51.340;12.326;2022-11-15T11:05:28;14.70;71.30
15997;DHT22;8103;51.340;12.326;2022-11-15T11:07:58;14.70;72.00
15997;DHT22;8103;51.340;12.326;2022-11-15T11:10:25;14.60;73.10
15997;DHT22;8103;51.340;12.326;2022-11-15T11:13:26;14.60;73.40
15997;DHT22;8103;51.340;12.326;2022-11-15T11:19:04;14.60;73.80
15997;DHT22;8103;51.340;12.326;2022-11-15T11:22:02;14.70;74.90
15997;DHT22;8103;51.340;12.326;2022-11-15T11:24:44;14.70;74.80
15997;DHT22;8103;51.340;12.326;2022-11-15T11:27:36;14.70;74.70
15997;DHT22;8103;51.340;12.326;2022-11-15T11:30:20;14.70;75.10
15997;DHT22;8103;51.340;12.326;2022-11-15T11:35:32;14.70;75.20
15997;DHT22;8103;51.340;12.326;2022-11-15T11:40:49;14.80;75.60
15997;DHT22;8103;51.340;12.326;2022-11-15T11:43:55;14.80;75.70
15997;DHT22;8103;51.340;12.326;2022-11-15T11:46:48;14.80;75.60
15997;DHT22;8103;51.340;12.326;2022-11-15T11:52:54;14.90;75.80
15997;DHT22;8103;51.340;12.326;2022-11-15T11:55:20;15.00;75.80
15997;DHT22;8103;51.340;12.326;2022-11-15T11:58:16;15.00;76.00
15997;DHT22;8103;51.340;12.326;2022-11-15T12:00:55;15.10;76.10
15997;DHT22;8103;51.340;12.326;2022-11-15T12:03:43;15.10;76.30
15997;DHT22;8103;51.340;12.326;2022-11-15T12:06:31;15.20;77.00
15997;DHT22;8103;51.340;12.326;2022-11-15T12:09:27;15.20;77.70
15997;DHT22;8103;51.340;12.326;2022-11-15T12:17:24;15.20;78.50
15997;DHT22;8103;51.340;12.326;2022-11-15T12:19:59;15.20;78.90
15997;DHT22;8103;51.340;12.326;2022-11-15T12:23:06;15.20;79.50
15997;DHT22;8103;51.340;12.326;2022-11-15T12:25:39;15.20;79.90
15997;DHT22;8103;51.340;12.326;2022-11-15T12:33:47;15.20;80.30
15997;DHT22;8103;51.340;12.326;2022-11-15T12:39:05;15.20;80.00
15997;DHT22;8103;51.340;12.326;2022-11-15T12:41:34;15.20;79.90
15997;DHT22;8103;51.340;12.326;2022-11-15T12:44:02;15.20;80.00
15997;DHT22;8103;51.340;12.326;2022-11-15T12:49:01;15.30;80.00
15997;DHT22;8103;51.340;12.326;2022-11-15T12:59:56;15.40;77.90
15997;DHT22;8103;51.340;12.326;2022-11-15T13:17:54;26.50;46.70
15997;DHT22;8103;51.340;12.326;2022-11-15T13:20:30;27.80;43.10
15997;DHT22;8103;51.340;12.326;2022-11-15T13:23:14;29.10;39.00
15997;DHT22;8103;51.340;12.326;2022-11-15T13:26:14;29.20;38.70
15997;DHT22;8103;51.340;12.326;2022-11-15T13:28:46;29.90;38.20
15997;DHT22;8103;51.340;12.326;2022-11-15T13:31:37;30.10;35.50
15997;DHT22;8103;51.340;12.326;2022-11-15T13:34:29;29.80;35.80
15997;DHT22;8103;51.340;12.326;2022-11-15T13:39:49;30.20;34.80
15997;DHT22;8103;51.340;12.326;2022-11-15T13:42:20;30.20;34.60
15997;DHT22;8103;51.340;12.326;2022-11-15T13:44:58;29.90;34.30
15997;DHT22;8103;51.340;12.326;2022-11-15T13:47:28;29.60;34.50
15997;DHT22;8103;51.340;12.326;2022-11-15T13:50:00;29.40;34.70
15997;DHT22;8103;51.340;12.326;2022-11-15T13:52:36;29.00;35.20
15997;DHT22;8103;51.340;12.326;2022-11-15T13:55:18;28.90;35.60
15997;DHT22;8103;51.340;12.326;2022-11-15T13:57:48;28.90;35.90
15997;DHT22;8103;51.340;12.326;2022-11-15T14:00:36;28.60;35.80
15997;DHT22;8103;51.340;12.326;2022-11-15T14:03:16;27.70;36.80
15997;DHT22;8103;51.340;12.326;2022-11-15T14:08:30;24.70;41.20
15997;DHT22;8103;51.340;12.326;2022-11-15T14:11:17;23.30;43.80
15997;DHT22;8103;51.340;12.326;2022-11-15T14:16:41;20.90;48.80
15997;DHT22;8103;51.340;12.326;2022-11-15T14:24:38;18.70;55.20
15997;DHT22;8103;51.340;12.326;2022-11-15T14:27:25;18.20;56.40
15997;DHT22;8103;51.340;12.326;2022-11-15T14:29:52;17.80;57.90
15997;DHT22;8103;51.340;12.326;2022-11-15T14:32:37;17.40;59.60
15997;DHT22;8103;51.340;12.326;2022-11-15T14:35:19;17.20;61.80
15997;DHT22;8103;51.340;12.326;2022-11-15T14:37:49;17.10;63.50
15997;DHT22;8103;51.340;12.326;2022-11-15T14:40:21;17.00;64.70
15997;DHT22;8103;51.340;12.326;2022-11-15T14:42:49;16.90;65.80
15997;DHT22;8103;51.340;12.326;2022-11-15T14:45:19;16.80;67.00
15997;DHT22;8103;51.340;12.326;2022-11-15T14:47:47;17.10;66.90
15997;DHT22;8103;51.340;12.326;2022-11-15T14:50:19;17.40;66.40
15997;DHT22;8103;51.340;12.326;2022-11-15T14:52:47;17.60;65.50
15997;DHT22;8103;51.340;12.326;2022-11-15T14:55:26;17.50;64.90
15997;DHT22;8103;51.340;12.326;2022-11-15T14:57:56;17.20;65.20
15997;DHT22;8103;51.340;12.326;2022-11-15T15:00:23;16.70;66.20
15997;DHT22;8103;51.340;12.326;2022-11-15T15:02:53;16.30;68.30
15997;DHT22;8103;51.340;12.326;2022-11-15T15:07:52;15.60;72.80
15997;DHT22;8103;51.340;12.326;2022-11-15T15:10:22;15.30;74.30
15997;DHT22;8103;51.340;12.326;2022-11-15T15:13:05;15.10;75.70
15997;DHT22;8103;51.340;12.326;2022-11-15T15:15:35;14.80;76.80
15997;DHT22;8103;51.340;12.326;2022-11-15T15:18:04;14.60;78.00
15997;DHT22;8103;51.340;12.326;2022-11-15T15:20:32;14.40;79.70
15997;DHT22;8103;51.340;12.326;2022-11-15T15:22:59;14.30;81.20
15997;DHT22;8103;51.340;12.326;2022-11-15T15:25:32;14.10;82.20
15997;DHT22;8103;51.340;12.326;2022-11-15T15:28:00;13.90;83.20
15997;DHT22;8103;51.340;12.326;2022-11-15T15:30:30;13.80;84.30
15997;DHT22;8103;51.340;12.326;2022-11-15T15:32:57;13.70;85.50
15997;DHT22;8103;51.340;12.326;2022-11-15T15:35:29;13.50;86.70
15997;DHT22;8103;51.340;12.326;2022-11-15T15:37:57;13.40;87.60
15997;DHT22;8103;51.340;12.326;2022-11-15T15:40:24;13.30;88.30
15997;DHT22;8103;51.340;12.326;2022-11-15T15:42:52;13.20;89.20
15997;DHT22;8103;51.340;12.326;2022-11-15T15:45:19;13.10;90.00
15997;DHT22;8103;51.340;12.326;2022-11-15T15:47:47;13.00;90.40
15997;DHT22;8103;51.340;12.326;2022-11-15T15:50:29;12.90;90.80
15997;DHT22;8103;51.340;12.326;2022-11-15T15:52:58;12.80;91.30
15997;DHT22;8103;51.340;12.326;2022-11-15T15:55:28;12.70;91.90
15997;DHT22;8103;51.340;12.326;2022-11-15T15:57:57;12.60;93.10
15997;DHT22;8103;51.340;12.326;2022-11-15T16:00:25;12.40;95.50
15997;DHT22;8103;51.340;12.326;2022-11-15T16:02:52;12.30;95.40
15997;DHT22;8103;51.340;12.326;2022-11-15T16:05:21;12.20;95.50
15997;DHT22;8103;51.340;12.326;2022-11-15T16:07:50;12.10;95.70
15997;DHT22;8103;51.340;12.326;2022-11-15T16:10:26;12.00;96.00
15997;DHT22;8103;51.340;12.326;2022-11-15T16:12:55;12.00;96.30
15997;DHT22;8103;51.340;12.326;2022-11-15T16:15:24;11.90;96.60
15997;DHT22;8103;51.340;12.326;2022-11-15T16:17:57;11.80;97.00
15997;DHT22;8103;51.340;12.326;2022-11-15T16:20:32;11.70;97.30
15997;DHT22;8103;51.340;12.326;2022-11-15T16:23:00;11.70;97.70
15997;DHT22;8103;51.340;12.326;2022-11-15T16:25:46;11.60;98.00
15997;DHT22;8103;51.340;12.326;2022-11-15T16:30:59;11.50;99.00
15997;DHT22;8103;51.340;12.326;2022-11-15T16:33:26;11.40;99.00
15997;DHT22;8103;51.340;12.326;2022-11-15T16:35:53;11.30;99.40
15997;DHT22;8103;51.340;12.326;2022-11-15T16:38:20;11.30;99.70
15997;DHT22;8103;51.340;12.326;2022-11-15T16:40:47;11.20;99.90
15997;DHT22;8103;51.340;12.326;2022-11-15T16:43:14;11.10;99.90
15997;DHT22;8103;51.340;12.326;2022-11-15T16:45:42;11.10;99.90
15997;DHT22;8103;51.340;12.326;2022-11-15T16:48:35;11.10;99.90
15997;DHT22;8103;51.340;12.326;2022-11-15T16:51:02;11.00;99.90
15997;DHT22;8103;51.340;12.326;2022-11-15T16:53:30;10.90;99.90
15997;DHT22;8103;51.340;12.326;2022-11-15T16:55:57;10.90;99.90
15997;DHT22;8103;51.340;12.326;2022-11-15T16:58:24;10.90;99.90
15997;DHT22;8103;51.340;12.326;2022-11-15T17:00:52;10.80;99.90
15997;DHT22;8103;51.340;12.326;2022-11-15T17:03:23;10.80;99.90
15997;DHT22;8103;51.340;12.326;2022-11-15T17:06:03;10.70;99.90
15997;DHT22;8103;51.340;12.326;2022-11-15T17:08:34;10.70;99.90
15997;DHT22;8103;51.340;12.326;2022-11-15T17:11:04;10.70;99.90
15997;DHT22;8103;51.340;12.326;2022-11-15T17:13:32;10.60;99.90
15997;DHT22;8103;51.340;12.326;2022-11-15T17:16:07;10.60;99.90
15997;DHT22;8103;51.340;12.326;2022-11-15T17:18:35;10.60;99.90
15997;DHT22;8103;51.340;12.326;2022-11-15T17:21:07;10.50;99.90
15997;DHT22;8103;51.340;12.326;2022-11-15T17:23:35;10.50;99.90
15997;DHT22;8103;51.340;12.326;2022-11-15T17:26:03;10.50;99.90
15997;DHT22;8103;51.340;12.326;2022-11-15T17:28:54;10.40;99.90
15997;DHT22;8103;51.340;12.326;2022-11-15T17:31:23;10.40;99.90
15997;DHT22;8103;51.340;12.326;2022-11-15T17:33:52;10.40;99.90
15997;DHT22;8103;51.340;12.326;2022-11-15T17:36:21;10.40;99.90
15997;DHT22;8103;51.340;12.326;2022-11-15T17:38:48;10.40;99.90
15997;DHT22;8103;51.340;12.326;2022-11-15T17:41:22;10.40;99.90
15997;DHT22;8103;51.340;12.326;2022-11-15T17:43:49;10.30;99.90
15997;DHT22;8103;51.340;12.326;2022-11-15T17:46:19;10.30;99.90
15997;DHT22;8103;51.340;12.326;2022-11-15T17:48:47;10.30;99.90
15997;DHT22;8103;51.340;12.326;2022-11-15T17:51:16;10.20;99.90
15997;DHT22;8103;51.340;12.326;2022-11-15T17:53:45;10.20;99.90
15997;DHT22;8103;51.340;12.326;2022-11-15T17:56:18;10.10;99.90
15997;DHT22;8103;51.340;12.326;2022-11-15T17:58:53;10.10;99.90
15997;DHT22;8103;51.340;12.326;2022-11-15T18:01:23;10.10;99.90
15997;DHT22;8103;51.340;12.326;2022-11-15T18:03:51;10.10;99.90
15997;DHT22;8103;51.340;12.326;2022-11-15T18:06:19;10.00;99.90
15997;DHT22;8103;51.340;12.326;2022-11-15T18:08:49;10.00;99.90
15997;DHT22;8103;51.340;12.326;2022-11-15T18:11:19;10.00;99.90
15997;DHT22;8103;51.340;12.326;2022-11-15T18:13:50;10.00;99.90
15997;DHT22;8103;51.340;12.326;2022-11-15T18:16:20;10.00;99.90